sensor_id;sensor_type;location;lat;lon;timestamp;P1;durP1;ratioP1;P2;durP2;ratioP2
48847;SDS011;36611;51.638;5.784;2022-08-03T00:00:23;8.13;;;3.53;;
48847;SDS011;36611;51.638;5.784;2022-08-03T00:02:55;4.57;;;2.55;;
48847;SDS011;36611;51.638;5.784;2022-08-03T00:05:22;5.75;;;2.67;;
48847;SDS011;36611;51.638;5.784;2022-08-03T00:07:49;8.98;;;3.05;;
48847;SDS011;36611;51.638;5.784;2022-08-03T00:10:15;4.43;;;3.13;;
48847;SDS011;36611;51.638;5.784;2022-08-03T00:12:42;6.38;;;3.13;;
48847;SDS011;36611;51.638;5.784;2022-08-03T00:15:09;6.40;;;2.88;;
48847;SDS011;36611;51.638;5.784;2022-08-03T00:17:42;6.10;;;2.60;;
48847;SDS011;36611;51.638;5.784;2022-08-03T00:20:19;6.18;;;3.22;;
48847;SDS011;36611;51.638;5.784;2022-08-03T00:25:17;5.43;;;3.00;;
48847;SDS011;36611;51.638;5.784;2022-08-03T00:27:44;5.70;;;3.20;;
48847;SDS011;36611;51.638;5.784;2022-08-03T00:30:13;7.35;;;3.35;;
48847;SDS011;36611;51.638;5.784;2022-08-03T00:32:42;4.82;;;2.72;;
48847;SDS011;36611;51.638;5.784;2022-08-03T00:35:29;7.03;;;2.88;;
48847;SDS011;36611;51.638;5.784;2022-08-03T00:38:03;5.68;;;3.30;;
48847;SDS011;36611;51.638;5.784;2022-08-03T00:40:29;6.50;;;3.17;;
48847;SDS011;36611;51.638;5.784;2022-08-03T00:42:59;5.95;;;2.83;;
48847;SDS011;36611;51.638;5.784;2022-08-03T00:45:29;6.90;;;3.28;;
48847;SDS011;36611;51.638;5.784;2022-08-03T00:47:57;5.07;;;3.40;;
48847;SDS011;36611;51.638;5.784;2022-08-03T00:50:25;4.43;;;3.17;;
48847;SDS011;36611;51.638;5.784;2022-08-03T00:52:57;5.18;;;2.55;;
48847;SDS011;36611;51.638;5.784;2022-08-03T00:55:24;3.90;;;3.00;;
48847;SDS011;36611;51.638;5.784;2022-08-03T00:57:51;6.65;;;3.65;;
48847;SDS011;36611;51.638;5.784;2022-08-03T01:00:20;7.53;;;3.63;;
48847;SDS011;36611;51.638;5.784;2022-08-03T01:02:52;7.97;;;3.50;;
48847;SDS011;36611;51.638;5.784;2022-08-03T01:05:19;5.80;;;3.20;;
48847;SDS011;36611;51.638;5.784;2022-08-03T01:10:39;5.80;;;3.65;;
48847;SDS011;36611;51.638;5.784;2022-08-03T01:13:21;5.05;;;2.63;;
48847;SDS011;36611;51.638;5.784;2022-08-03T01:16:17;3.80;;;2.78;;
48847;SDS011;36611;51.638;5.784;2022-08-03T01:19:05;6.82;;;2.60;;
48847;SDS011;36611;51.638;5.784;2022-08-03T01:27:11;10.15;;;3.70;;
48847;SDS011;36611;51.638;5.784;2022-08-03T01:29:55;4.47;;;3.58;;
48847;SDS011;36611;51.638;5.784;2022-08-03T01:32:27;7.35;;;4.05;;
48847;SDS011;36611;51.638;5.784;2022-08-03T01:35:25;5.90;;;4.07;;
48847;SDS011;36611;51.638;5.784;2022-08-03T01:38:01;5.38;;;3.20;;
48847;SDS011;36611;51.638;5.784;2022-08-03T01:40:31;5.93;;;3.22;;
48847;SDS011;36611;51.638;5.784;2022-08-03T01:43:05;7.57;;;3.70;;
48847;SDS011;36611;51.638;5.784;2022-08-03T01:45:34;4.95;;;3.17;;
48847;SDS011;36611;51.638;5.784;2022-08-03T01:48:03;7.63;;;4.00;;
48847;SDS011;36611;51.638;5.784;2022-08-03T01:50:30;6.63;;;3.80;;
48847;SDS011;36611;51.638;5.784;2022-08-03T01:53:00;6.63;;;3.80;;
48847;SDS011;36611;51.638;5.784;2022-08-03T01:55:28;10.07;;;4.07;;
48847;SDS011;36611;51.638;5.784;2022-08-03T01:57:58;8.25;;;4.40;;
48847;SDS011;36611;51.638;5.784;2022-08-03T02:00:32;6.55;;;3.97;;
48847;SDS011;36611;51.638;5.784;2022-08-03T02:03:04;6.80;;;4.30;;
48847;SDS011;36611;51.638;5.784;2022-08-03T02:05:32;7.47;;;3.65;;
48847;SDS011;36611;51.638;5.784;2022-08-03T02:07:59;8.25;;;3.97;;
48847;SDS011;36611;51.638;5.784;2022-08-03T02:10:28;7.88;;;3.88;;
48847;SDS011;36611;51.638;5.784;2022-08-03T02:13:04;8.65;;;3.80;;
48847;SDS011;36611;51.638;5.784;2022-08-03T02:15:34;6.68;;;3.65;;
48847;SDS011;36611;51.638;5.784;2022-08-03T02:18:04;5.15;;;3.38;;
48847;SDS011;36611;51.638;5.784;2022-08-03T02:20:33;12.98;;;4.10;;
48847;SDS011;36611;51.638;5.784;2022-08-03T02:23:04;7.05;;;3.95;;
48847;SDS011;36611;51.638;5.784;2022-08-03T02:25:32;6.35;;;4.00;;
48847;SDS011;36611;51.638;5.784;2022-08-03T02:28:05;9.32;;;4.30;;
48847;SDS011;36611;51.638;5.784;2022-08-03T02:30:36;6.18;;;4.05;;
48847;SDS011;36611;51.638;5.784;2022-08-03T02:33:07;8.35;;;4.13;;
48847;SDS011;36611;51.638;5.784;2022-08-03T02:35:37;7.47;;;3.92;;
48847;SDS011;36611;51.638;5.784;2022-08-03T02:38:06;6.97;;;4.28;;
48847;SDS011;36611;51.638;5.784;2022-08-03T02:40:35;10.65;;;4.68;;
48847;SDS011;36611;51.638;5.784;2022-08-03T02:43:07;11.57;;;4.55;;
48847;SDS011;36611;51.638;5.784;2022-08-03T02:45:41;8.07;;;4.38;;
48847;SDS011;36611;51.638;5.784;2022-08-03T02:48:11;8.73;;;4.25;;
48847;SDS011;36611;51.638;5.784;2022-08-03T02:50:41;7.50;;;4.03;;
48847;SDS011;36611;51.638;5.784;2022-08-03T02:53:13;7.70;;;3.92;;
48847;SDS011;36611;51.638;5.784;2022-08-03T02:55:43;8.55;;;4.30;;
48847;SDS011;36611;51.638;5.784;2022-08-03T02:58:12;7.30;;;4.45;;
48847;SDS011;36611;51.638;5.784;2022-08-03T03:00:43;10.93;;;4.80;;
48847;SDS011;36611;51.638;5.784;2022-08-03T03:03:14;10.18;;;4.38;;
48847;SDS011;36611;51.638;5.784;2022-08-03T03:05:40;10.80;;;4.57;;
48847;SDS011;36611;51.638;5.784;2022-08-03T03:08:22;9.60;;;3.88;;
48847;SDS011;36611;51.638;5.784;2022-08-03T03:10:54;8.02;;;4.53;;
48847;SDS011;36611;51.638;5.784;2022-08-03T03:13:29;6.55;;;3.90;;
48847;SDS011;36611;51.638;5.784;2022-08-03T03:15:58;8.27;;;4.47;;
48847;SDS011;36611;51.638;5.784;2022-08-03T03:18:32;9.75;;;4.55;;
48847;SDS011;36611;51.638;5.784;2022-08-03T03:21:00;6.22;;;4.40;;
48847;SDS011;36611;51.638;5.784;2022-08-03T03:23:31;9.05;;;4.50;;
48847;SDS011;36611;51.638;5.784;2022-08-03T03:26:01;6.97;;;4.28;;
48847;SDS011;36611;51.638;5.784;2022-08-03T03:28:29;6.43;;;4.43;;
48847;SDS011;36611;51.638;5.784;2022-08-03T03:30:56;7.70;;;4.47;;
48847;SDS011;36611;51.638;5.784;2022-08-03T03:33:24;7.05;;;4.38;;
48847;SDS011;36611;51.638;5.784;2022-08-03T03:35:53;8.77;;;4.78;;
48847;SDS011;36611;51.638;5.784;2022-08-03T03:38:20;9.43;;;4.55;;
48847;SDS011;36611;51.638;5.784;2022-08-03T03:40:47;8.68;;;4.88;;
48847;SDS011;36611;51.638;5.784;2022-08-03T03:43:17;9.75;;;4.85;;
48847;SDS011;36611;51.638;5.784;2022-08-03T03:45:44;7.25;;;4.70;;
48847;SDS011;36611;51.638;5.784;2022-08-03T03:48:12;9.88;;;4.90;;
48847;SDS011;36611;51.638;5.784;2022-08-03T03:50:38;9.43;;;5.25;;
48847;SDS011;36611;51.638;5.784;2022-08-03T03:53:12;9.52;;;5.45;;
48847;SDS011;36611;51.638;5.784;2022-08-03T03:55:41;8.93;;;5.20;;
48847;SDS011;36611;51.638;5.784;2022-08-03T03:58:27;10.85;;;6.32;;
48847;SDS011;36611;51.638;5.784;2022-08-03T04:00:54;8.32;;;5.55;;
48847;SDS011;36611;51.638;5.784;2022-08-03T04:03:22;8.02;;;5.28;;
48847;SDS011;36611;51.638;5.784;2022-08-03T04:05:49;8.50;;;4.95;;
48847;SDS011;36611;51.638;5.784;2022-08-03T04:08:34;9.32;;;5.57;;
48847;SDS011;36611;51.638;5.784;2022-08-03T04:11:20;11.65;;;6.00;;
48847;SDS011;36611;51.638;5.784;2022-08-03T04:14:03;10.52;;;5.68;;
48847;SDS011;36611;51.638;5.784;2022-08-03T04:16:35;12.73;;;5.70;;
48847;SDS011;36611;51.638;5.784;2022-08-03T04:19:09;11.93;;;5.68;;
48847;SDS011;36611;51.638;5.784;2022-08-03T04:21:39;8.52;;;5.38;;
48847;SDS011;36611;51.638;5.784;2022-08-03T04:24:09;10.85;;;5.30;;
48847;SDS011;36611;51.638;5.784;2022-08-03T04:26:39;12.68;;;6.03;;
48847;SDS011;36611;51.638;5.784;2022-08-03T04:29:08;10.40;;;6.30;;
48847;SDS011;36611;51.638;5.784;2022-08-03T04:31:37;10.88;;;5.65;;
48847;SDS011;36611;51.638;5.784;2022-08-03T04:34:06;15.43;;;7.15;;
48847;SDS011;36611;51.638;5.784;2022-08-03T04:36:35;13.82;;;7.18;;
48847;SDS011;36611;51.638;5.784;2022-08-03T04:39:13;15.45;;;8.27;;
48847;SDS011;36611;51.638;5.784;2022-08-03T04:41:47;18.60;;;9.27;;
48847;SDS011;36611;51.638;5.784;2022-08-03T04:47:31;21.05;;;9.30;;
48847;SDS011;36611;51.638;5.784;2022-08-03T04:50:00;24.42;;;9.88;;
48847;SDS011;36611;51.638;5.784;2022-08-03T04:52:27;28.40;;;10.40;;
48847;SDS011;36611;51.638;5.784;2022-08-03T04:54:54;24.98;;;10.50;;
48847;SDS011;36611;51.638;5.784;2022-08-03T04:57:20;23.25;;;9.55;;
48847;SDS011;36611;51.638;5.784;2022-08-03T04:59:49;23.65;;;9.77;;
48847;SDS011;36611;51.638;5.784;2022-08-03T05:02:27;19.63;;;9.35;;
48847;SDS011;36611;51.638;5.784;2022-08-03T05:04:58;18.88;;;8.38;;
48847;SDS011;36611;51.638;5.784;2022-08-03T05:07:25;12.88;;;7.93;;
48847;SDS011;36611;51.638;5.784;2022-08-03T05:10:01;11.10;;;6.60;;
48847;SDS011;36611;51.638;5.784;2022-08-03T05:12:28;11.32;;;6.75;;
48847;SDS011;36611;51.638;5.784;2022-08-03T05:14:59;12.05;;;6.22;;
48847;SDS011;36611;51.638;5.784;2022-08-03T05:17:26;9.88;;;5.88;;
48847;SDS011;36611;51.638;5.784;2022-08-03T05:19:54;9.90;;;5.85;;
48847;SDS011;36611;51.638;5.784;2022-08-03T05:22:21;9.98;;;6.20;;
48847;SDS011;36611;51.638;5.784;2022-08-03T05:24:48;9.35;;;6.57;;
48847;SDS011;36611;51.638;5.784;2022-08-03T05:27:15;10.43;;;6.30;;
48847;SDS011;36611;51.638;5.784;2022-08-03T05:29:45;9.15;;;6.13;;
48847;SDS011;36611;51.638;5.784;2022-08-03T05:32:12;9.57;;;5.95;;
48847;SDS011;36611;51.638;5.784;2022-08-03T05:34:39;11.10;;;5.80;;
48847;SDS011;36611;51.638;5.784;2022-08-03T05:37:06;11.20;;;5.88;;
48847;SDS011;36611;51.638;5.784;2022-08-03T05:39:33;13.05;;;7.00;;
48847;SDS011;36611;51.638;5.784;2022-08-03T05:42:00;8.35;;;5.38;;
48847;SDS011;36611;51.638;5.784;2022-08-03T05:44:27;12.10;;;6.57;;
48847;SDS011;36611;51.638;5.784;2022-08-03T05:46:56;11.48;;;6.75;;
48847;SDS011;36611;51.638;5.784;2022-08-03T05:49:22;9.63;;;6.32;;
48847;SDS011;36611;51.638;5.784;2022-08-03T05:51:49;10.73;;;5.93;;
48847;SDS011;36611;51.638;5.784;2022-08-03T05:54:37;10.60;;;5.97;;
48847;SDS011;36611;51.638;5.784;2022-08-03T05:57:23;12.43;;;6.60;;
48847;SDS011;36611;51.638;5.784;2022-08-03T05:59:50;8.18;;;6.18;;
48847;SDS011;36611;51.638;5.784;2022-08-03T06:02:24;8.88;;;6.00;;
48847;SDS011;36611;51.638;5.784;2022-08-03T06:04:56;10.25;;;6.30;;
48847;SDS011;36611;51.638;5.784;2022-08-03T06:07:22;12.25;;;5.95;;
48847;SDS011;36611;51.638;5.784;2022-08-03T06:09:49;7.93;;;5.82;;
48847;SDS011;36611;51.638;5.784;2022-08-03T06:12:36;9.85;;;5.22;;
48847;SDS011;36611;51.638;5.784;2022-08-03T06:15:04;10.32;;;5.28;;
48847;SDS011;36611;51.638;5.784;2022-08-03T06:17:33;7.07;;;4.40;;
48847;SDS011;36611;51.638;5.784;2022-08-03T06:20:03;11.05;;;4.70;;
48847;SDS011;36611;51.638;5.784;2022-08-03T06:22:30;7.60;;;4.18;;
48847;SDS011;36611;51.638;5.784;2022-08-03T06:24:59;6.30;;;3.60;;
48847;SDS011;36611;51.638;5.784;2022-08-03T06:27:31;7.32;;;3.40;;
48847;SDS011;36611;51.638;5.784;2022-08-03T06:30:03;5.43;;;2.97;;
48847;SDS011;36611;51.638;5.784;2022-08-03T06:32:30;13.73;;;3.55;;
48847;SDS011;36611;51.638;5.784;2022-08-03T06:34:57;6.80;;;3.33;;
48847;SDS011;36611;51.638;5.784;2022-08-03T06:37:24;7.25;;;2.90;;
48847;SDS011;36611;51.638;5.784;2022-08-03T06:39:52;7.68;;;3.30;;
48847;SDS011;36611;51.638;5.784;2022-08-03T06:42:19;5.75;;;2.92;;
48847;SDS011;36611;51.638;5.784;2022-08-03T06:44:52;5.32;;;2.55;;
48847;SDS011;36611;51.638;5.784;2022-08-03T06:47:18;8.15;;;2.42;;
48847;SDS011;36611;51.638;5.784;2022-08-03T06:49:45;4.85;;;2.42;;
48847;SDS011;36611;51.638;5.784;2022-08-03T06:52:32;8.20;;;2.75;;
48847;SDS011;36611;51.638;5.784;2022-08-03T06:55:05;5.78;;;2.33;;
48847;SDS011;36611;51.638;5.784;2022-08-03T06:57:32;10.27;;;2.50;;
48847;SDS011;36611;51.638;5.784;2022-08-03T06:59:58;7.07;;;2.83;;
48847;SDS011;36611;51.638;5.784;2022-08-03T07:02:36;9.38;;;2.70;;
48847;SDS011;36611;51.638;5.784;2022-08-03T07:05:08;8.57;;;3.00;;
48847;SDS011;36611;51.638;5.784;2022-08-03T07:07:35;9.43;;;2.58;;
48847;SDS011;36611;51.638;5.784;2022-08-03T07:10:03;4.50;;;2.25;;
48847;SDS011;36611;51.638;5.784;2022-08-03T07:12:31;10.48;;;2.53;;
48847;SDS011;36611;51.638;5.784;2022-08-03T07:15:02;5.78;;;2.30;;
48847;SDS011;36611;51.638;5.784;2022-08-03T07:17:30;8.18;;;2.40;;
48847;SDS011;36611;51.638;5.784;2022-08-03T07:19:59;6.45;;;2.30;;
48847;SDS011;36611;51.638;5.784;2022-08-03T07:22:27;6.00;;;2.25;;
48847;SDS011;36611;51.638;5.784;2022-08-03T07:24:56;6.43;;;2.65;;
48847;SDS011;36611;51.638;5.784;2022-08-03T07:27:23;7.50;;;2.15;;
48847;SDS011;36611;51.638;5.784;2022-08-03T07:29:52;6.43;;;2.15;;
48847;SDS011;36611;51.638;5.784;2022-08-03T07:32:19;6.53;;;2.15;;
48847;SDS011;36611;51.638;5.784;2022-08-03T07:34:47;7.05;;;1.95;;
48847;SDS011;36611;51.638;5.784;2022-08-03T07:37:13;8.38;;;2.20;;
48847;SDS011;36611;51.638;5.784;2022-08-03T07:39:40;5.85;;;1.92;;
48847;SDS011;36611;51.638;5.784;2022-08-03T07:42:07;7.63;;;2.22;;
48847;SDS011;36611;51.638;5.784;2022-08-03T07:44:34;12.07;;;2.20;;
48847;SDS011;36611;51.638;5.784;2022-08-03T07:47:01;5.88;;;1.73;;
48847;SDS011;36611;51.638;5.784;2022-08-03T07:49:28;6.13;;;1.98;;
48847;SDS011;36611;51.638;5.784;2022-08-03T07:51:55;7.00;;;1.70;;
48847;SDS011;36611;51.638;5.784;2022-08-03T07:54:41;3.97;;;1.63;;
48847;SDS011;36611;51.638;5.784;2022-08-03T07:57:08;6.93;;;2.08;;
48847;SDS011;36611;51.638;5.784;2022-08-03T07:59:35;7.25;;;1.90;;
48847;SDS011;36611;51.638;5.784;2022-08-03T08:02:24;4.25;;;1.70;;
48847;SDS011;36611;51.638;5.784;2022-08-03T08:04:51;5.25;;;1.60;;
48847;SDS011;36611;51.638;5.784;2022-08-03T08:07:21;8.70;;;1.77;;
48847;SDS011;36611;51.638;5.784;2022-08-03T08:09:47;9.23;;;2.20;;
48847;SDS011;36611;51.638;5.784;2022-08-03T08:12:14;11.07;;;2.13;;
48847;SDS011;36611;51.638;5.784;2022-08-03T08:14:46;8.23;;;1.55;;
48847;SDS011;36611;51.638;5.784;2022-08-03T08:17:13;10.13;;;2.63;;
48847;SDS011;36611;51.638;5.784;2022-08-03T08:19:40;7.00;;;2.03;;
48847;SDS011;36611;51.638;5.784;2022-08-03T08:22:17;6.50;;;1.80;;
48847;SDS011;36611;51.638;5.784;2022-08-03T08:24:56;8.25;;;1.90;;
48847;SDS011;36611;51.638;5.784;2022-08-03T08:27:26;7.35;;;1.90;;
48847;SDS011;36611;51.638;5.784;2022-08-03T08:30:14;11.00;;;2.40;;
48847;SDS011;36611;51.638;5.784;2022-08-03T08:32:44;8.63;;;2.10;;
48847;SDS011;36611;51.638;5.784;2022-08-03T08:35:18;7.83;;;1.60;;
48847;SDS011;36611;51.638;5.784;2022-08-03T08:37:45;6.13;;;1.70;;
48847;SDS011;36611;51.638;5.784;2022-08-03T08:40:16;6.13;;;2.08;;
48847;SDS011;36611;51.638;5.784;2022-08-03T08:42:51;7.55;;;2.40;;
48847;SDS011;36611;51.638;5.784;2022-08-03T08:45:25;7.82;;;2.40;;
48847;SDS011;36611;51.638;5.784;2022-08-03T08:47:52;5.95;;;2.17;;
48847;SDS011;36611;51.638;5.784;2022-08-03T08:50:26;8.80;;;1.80;;
48847;SDS011;36611;51.638;5.784;2022-08-03T08:52:59;6.75;;;2.13;;
48847;SDS011;36611;51.638;5.784;2022-08-03T08:55:27;4.00;;;1.47;;
48847;SDS011;36611;51.638;5.784;2022-08-03T08:58:15;6.22;;;1.65;;
48847;SDS011;36611;51.638;5.784;2022-08-03T09:00:46;10.57;;;1.90;;
48847;SDS011;36611;51.638;5.784;2022-08-03T09:03:16;10.27;;;1.63;;
48847;SDS011;36611;51.638;5.784;2022-08-03T09:05:57;8.15;;;2.38;;
48847;SDS011;36611;51.638;5.784;2022-08-03T09:08:25;9.20;;;2.00;;
48847;SDS011;36611;51.638;5.784;2022-08-03T09:10:52;10.07;;;2.00;;
48847;SDS011;36611;51.638;5.784;2022-08-03T09:13:23;6.97;;;1.55;;
48847;SDS011;36611;51.638;5.784;2022-08-03T09:16:09;7.97;;;2.20;;
48847;SDS011;36611;51.638;5.784;2022-08-03T09:18:40;6.75;;;1.77;;
48847;SDS011;36611;51.638;5.784;2022-08-03T09:24:02;6.60;;;1.70;;
48847;SDS011;36611;51.638;5.784;2022-08-03T09:26:34;8.80;;;2.10;;
48847;SDS011;36611;51.638;5.784;2022-08-03T09:29:03;9.98;;;2.03;;
48847;SDS011;36611;51.638;5.784;2022-08-03T09:31:40;8.18;;;1.80;;
48847;SDS011;36611;51.638;5.784;2022-08-03T09:34:12;7.70;;;2.03;;
48847;SDS011;36611;51.638;5.784;2022-08-03T09:36:41;7.13;;;2.35;;
48847;SDS011;36611;51.638;5.784;2022-08-03T09:39:16;11.38;;;2.25;;
48847;SDS011;36611;51.638;5.784;2022-08-03T09:42:06;10.90;;;1.88;;
48847;SDS011;36611;51.638;5.784;2022-08-03T09:44:36;8.85;;;3.03;;
48847;SDS011;36611;51.638;5.784;2022-08-03T09:47:11;3.53;;;1.52;;
48847;SDS011;36611;51.638;5.784;2022-08-03T09:49:40;8.80;;;1.58;;
48847;SDS011;36611;51.638;5.784;2022-08-03T09:52:18;7.53;;;1.92;;
48847;SDS011;36611;51.638;5.784;2022-08-03T09:55:09;11.05;;;2.03;;
48847;SDS011;36611;51.638;5.784;2022-08-03T09:58:04;8.80;;;1.67;;
48847;SDS011;36611;51.638;5.784;2022-08-03T10:00:52;15.23;;;2.70;;
48847;SDS011;36611;51.638;5.784;2022-08-03T10:03:31;16.08;;;2.85;;
48847;SDS011;36611;51.638;5.784;2022-08-03T10:06:21;11.18;;;2.17;;
48847;SDS011;36611;51.638;5.784;2022-08-03T10:11:50;8.65;;;2.10;;
48847;SDS011;36611;51.638;5.784;2022-08-03T10:14:21;8.32;;;2.08;;
48847;SDS011;36611;51.638;5.784;2022-08-03T10:16:48;8.18;;;2.50;;
48847;SDS011;36611;51.638;5.784;2022-08-03T10:19:15;8.95;;;2.40;;
48847;SDS011;36611;51.638;5.784;2022-08-03T10:21:46;10.48;;;2.10;;
48847;SDS011;36611;51.638;5.784;2022-08-03T10:24:19;9.30;;;2.15;;
48847;SDS011;36611;51.638;5.784;2022-08-03T10:26:50;10.18;;;2.00;;
48847;SDS011;36611;51.638;5.784;2022-08-03T10:29:21;6.95;;;2.00;;
48847;SDS011;36611;51.638;5.784;2022-08-03T10:31:53;7.60;;;1.85;;
48847;SDS011;36611;51.638;5.784;2022-08-03T10:34:26;7.30;;;1.90;;
48847;SDS011;36611;51.638;5.784;2022-08-03T10:36:57;9.48;;;2.20;;
48847;SDS011;36611;51.638;5.784;2022-08-03T10:39:28;6.70;;;1.85;;
48847;SDS011;36611;51.638;5.784;2022-08-03T10:41:56;9.52;;;2.40;;
48847;SDS011;36611;51.638;5.784;2022-08-03T10:44:32;9.68;;;2.33;;
48847;SDS011;36611;51.638;5.784;2022-08-03T10:47:06;14.18;;;2.75;;
48847;SDS011;36611;51.638;5.784;2022-08-03T10:49:35;6.38;;;2.45;;
48847;SDS011;36611;51.638;5.784;2022-08-03T10:52:03;11.65;;;2.47;;
48847;SDS011;36611;51.638;5.784;2022-08-03T10:54:52;9.02;;;2.15;;
48847;SDS011;36611;51.638;5.784;2022-08-03T10:57:47;11.15;;;2.88;;
48847;SDS011;36611;51.638;5.784;2022-08-03T11:00:25;9.55;;;2.40;;
48847;SDS011;36611;51.638;5.784;2022-08-03T11:05:46;12.88;;;2.35;;
48847;SDS011;36611;51.638;5.784;2022-08-03T11:08:20;16.83;;;3.58;;
48847;SDS011;36611;51.638;5.784;2022-08-03T11:11:28;10.23;;;2.35;;
48847;SDS011;36611;51.638;5.784;2022-08-03T11:13:55;8.60;;;2.35;;
48847;SDS011;36611;51.638;5.784;2022-08-03T11:16:22;11.80;;;2.17;;
48847;SDS011;36611;51.638;5.784;2022-08-03T11:18:55;6.93;;;2.28;;
48847;SDS011;36611;51.638;5.784;2022-08-03T11:29:57;10.35;;;3.00;;
48847;SDS011;36611;51.638;5.784;2022-08-03T11:35:22;10.82;;;2.75;;
48847;SDS011;36611;51.638;5.784;2022-08-03T11:40:46;7.75;;;2.30;;
48847;SDS011;36611;51.638;5.784;2022-08-03T11:45:57;14.25;;;2.85;;
48847;SDS011;36611;51.638;5.784;2022-08-03T11:48:39;11.68;;;3.25;;
48847;SDS011;36611;51.638;5.784;2022-08-03T11:51:20;9.45;;;2.00;;
48847;SDS011;36611;51.638;5.784;2022-08-03T11:53:55;11.43;;;2.55;;
48847;SDS011;36611;51.638;5.784;2022-08-03T11:56:23;11.93;;;3.00;;
48847;SDS011;36611;51.638;5.784;2022-08-03T11:58:52;12.35;;;2.63;;
48847;SDS011;36611;51.638;5.784;2022-08-03T12:01:40;8.10;;;2.53;;
48847;SDS011;36611;51.638;5.784;2022-08-03T12:04:07;9.50;;;2.95;;
48847;SDS011;36611;51.638;5.784;2022-08-03T12:06:35;8.60;;;2.20;;
48847;SDS011;36611;51.638;5.784;2022-08-03T12:09:20;12.82;;;2.97;;
48847;SDS011;36611;51.638;5.784;2022-08-03T12:11:48;6.70;;;2.28;;
48847;SDS011;36611;51.638;5.784;2022-08-03T12:17:18;6.65;;;2.17;;
48847;SDS011;36611;51.638;5.784;2022-08-03T12:19:46;10.95;;;1.83;;
48847;SDS011;36611;51.638;5.784;2022-08-03T12:22:12;7.60;;;2.22;;
48847;SDS011;36611;51.638;5.784;2022-08-03T12:24:41;8.45;;;1.90;;
48847;SDS011;36611;51.638;5.784;2022-08-03T12:27:08;7.28;;;1.60;;
48847;SDS011;36611;51.638;5.784;2022-08-03T12:29:35;6.28;;;1.50;;
48847;SDS011;36611;51.638;5.784;2022-08-03T12:32:02;9.88;;;2.30;;
48847;SDS011;36611;51.638;5.784;2022-08-03T12:37:18;7.57;;;2.10;;
48847;SDS011;36611;51.638;5.784;2022-08-03T12:39:49;5.13;;;1.83;;
48847;SDS011;36611;51.638;5.784;2022-08-03T12:42:31;6.70;;;1.80;;
48847;SDS011;36611;51.638;5.784;2022-08-03T12:45:22;7.70;;;2.22;;
48847;SDS011;36611;51.638;5.784;2022-08-03T12:47:54;12.93;;;2.65;;
48847;SDS011;36611;51.638;5.784;2022-08-03T12:50:24;12.40;;;2.33;;
48847;SDS011;36611;51.638;5.784;2022-08-03T12:53:00;7.03;;;1.95;;
48847;SDS011;36611;51.638;5.784;2022-08-03T12:55:30;10.57;;;2.20;;
48847;SDS011;36611;51.638;5.784;2022-08-03T12:58:33;9.38;;;1.95;;
48847;SDS011;36611;51.638;5.784;2022-08-03T13:01:04;5.00;;;1.52;;
48847;SDS011;36611;51.638;5.784;2022-08-03T13:03:43;6.82;;;1.80;;
48847;SDS011;36611;51.638;5.784;2022-08-03T13:06:21;7.72;;;2.33;;
48847;SDS011;36611;51.638;5.784;2022-08-03T13:08:59;7.30;;;2.03;;
48847;SDS011;36611;51.638;5.784;2022-08-03T13:11:28;8.60;;;1.63;;
48847;SDS011;36611;51.638;5.784;2022-08-03T13:14:14;7.45;;;1.88;;
48847;SDS011;36611;51.638;5.784;2022-08-03T13:16:45;6.38;;;1.88;;
48847;SDS011;36611;51.638;5.784;2022-08-03T13:19:12;4.03;;;1.55;;
48847;SDS011;36611;51.638;5.784;2022-08-03T13:21:41;9.85;;;1.88;;
48847;SDS011;36611;51.638;5.784;2022-08-03T13:24:30;8.15;;;1.92;;
48847;SDS011;36611;51.638;5.784;2022-08-03T13:26:57;5.15;;;1.38;;
48847;SDS011;36611;51.638;5.784;2022-08-03T13:29:25;6.13;;;1.83;;
48847;SDS011;36611;51.638;5.784;2022-08-03T13:31:51;6.65;;;1.83;;
48847;SDS011;36611;51.638;5.784;2022-08-03T13:34:19;6.32;;;1.65;;
48847;SDS011;36611;51.638;5.784;2022-08-03T13:36:49;5.70;;;1.77;;
48847;SDS011;36611;51.638;5.784;2022-08-03T13:39:35;6.53;;;1.60;;
48847;SDS011;36611;51.638;5.784;2022-08-03T13:42:21;8.93;;;1.85;;
48847;SDS011;36611;51.638;5.784;2022-08-03T13:44:48;5.45;;;1.70;;
48847;SDS011;36611;51.638;5.784;2022-08-03T13:47:15;8.95;;;2.25;;
48847;SDS011;36611;51.638;5.784;2022-08-03T13:49:42;10.45;;;1.80;;
48847;SDS011;36611;51.638;5.784;2022-08-03T13:52:26;8.30;;;1.67;;
48847;SDS011;36611;51.638;5.784;2022-08-03T13:54:53;7.03;;;2.08;;
48847;SDS011;36611;51.638;5.784;2022-08-03T13:57:20;6.82;;;1.92;;
48847;SDS011;36611;51.638;5.784;2022-08-03T14:00:06;7.03;;;1.95;;
48847;SDS011;36611;51.638;5.784;2022-08-03T14:02:33;6.00;;;1.63;;
48847;SDS011;36611;51.638;5.784;2022-08-03T14:05:04;6.65;;;1.52;;
48847;SDS011;36611;51.638;5.784;2022-08-03T14:07:31;4.85;;;2.00;;
48847;SDS011;36611;51.638;5.784;2022-08-03T14:09:58;7.95;;;1.83;;
48847;SDS011;36611;51.638;5.784;2022-08-03T14:12:24;6.95;;;1.67;;
48847;SDS011;36611;51.638;5.784;2022-08-03T14:14:51;5.35;;;1.73;;
48847;SDS011;36611;51.638;5.784;2022-08-03T14:17:21;6.05;;;2.03;;
48847;SDS011;36611;51.638;5.784;2022-08-03T14:19:49;6.80;;;1.70;;
48847;SDS011;36611;51.638;5.784;2022-08-03T14:22:19;5.25;;;1.65;;
48847;SDS011;36611;51.638;5.784;2022-08-03T14:24:46;10.15;;;2.17;;
48847;SDS011;36611;51.638;5.784;2022-08-03T14:27:19;6.47;;;1.55;;
48847;SDS011;36611;51.638;5.784;2022-08-03T14:29:45;5.78;;;1.55;;
48847;SDS011;36611;51.638;5.784;2022-08-03T14:32:12;4.28;;;1.67;;
48847;SDS011;36611;51.638;5.784;2022-08-03T14:34:43;7.10;;;2.10;;
48847;SDS011;36611;51.638;5.784;2022-08-03T14:37:10;8.07;;;1.83;;
48847;SDS011;36611;51.638;5.784;2022-08-03T14:39:36;5.43;;;1.52;;
48847;SDS011;36611;51.638;5.784;2022-08-03T14:42:23;6.60;;;2.03;;
48847;SDS011;36611;51.638;5.784;2022-08-03T14:44:51;5.03;;;1.60;;
48847;SDS011;36611;51.638;5.784;2022-08-03T14:47:24;6.82;;;1.70;;
48847;SDS011;36611;51.638;5.784;2022-08-03T14:49:50;5.60;;;1.70;;
48847;SDS011;36611;51.638;5.784;2022-08-03T14:52:37;4.45;;;1.52;;
48847;SDS011;36611;51.638;5.784;2022-08-03T14:55:08;7.68;;;1.60;;
48847;SDS011;36611;51.638;5.784;2022-08-03T14:57:34;5.35;;;1.50;;
48847;SDS011;36611;51.638;5.784;2022-08-03T15:00:01;5.38;;;1.27;;
48847;SDS011;36611;51.638;5.784;2022-08-03T15:02:29;5.20;;;1.63;;
48847;SDS011;36611;51.638;5.784;2022-08-03T15:04:56;4.60;;;1.42;;
48847;SDS011;36611;51.638;5.784;2022-08-03T15:07:22;5.88;;;2.33;;
48847;SDS011;36611;51.638;5.784;2022-08-03T15:09:49;7.45;;;1.45;;
48847;SDS011;36611;51.638;5.784;2022-08-03T15:12:15;7.82;;;1.70;;
48847;SDS011;36611;51.638;5.784;2022-08-03T15:14:43;5.85;;;1.65;;
48847;SDS011;36611;51.638;5.784;2022-08-03T15:17:10;5.57;;;1.60;;
48847;SDS011;36611;51.638;5.784;2022-08-03T15:19:37;5.82;;;1.42;;
48847;SDS011;36611;51.638;5.784;2022-08-03T15:22:25;2.83;;;1.25;;
48847;SDS011;36611;51.638;5.784;2022-08-03T15:25:02;6.75;;;1.70;;
48847;SDS011;36611;51.638;5.784;2022-08-03T15:27:50;7.10;;;1.80;;
48847;SDS011;36611;51.638;5.784;2022-08-03T15:30:29;8.90;;;1.70;;
48847;SDS011;36611;51.638;5.784;2022-08-03T15:32:57;4.47;;;1.70;;
48847;SDS011;36611;51.638;5.784;2022-08-03T15:35:24;6.97;;;1.70;;
48847;SDS011;36611;51.638;5.784;2022-08-03T15:37:51;7.07;;;1.83;;
48847;SDS011;36611;51.638;5.784;2022-08-03T15:40:17;6.72;;;1.60;;
48847;SDS011;36611;51.638;5.784;2022-08-03T15:42:44;5.25;;;1.50;;
48847;SDS011;36611;51.638;5.784;2022-08-03T15:45:10;6.60;;;1.85;;
48847;SDS011;36611;51.638;5.784;2022-08-03T15:47:38;23.75;;;2.80;;
48847;SDS011;36611;51.638;5.784;2022-08-03T15:50:04;5.18;;;1.83;;
48847;SDS011;36611;51.638;5.784;2022-08-03T15:52:35;4.40;;;1.88;;
48847;SDS011;36611;51.638;5.784;2022-08-03T15:55:06;7.35;;;1.50;;
48847;SDS011;36611;51.638;5.784;2022-08-03T15:57:33;8.43;;;1.98;;